createdAt,value
2022-07-28T00:01:11.516Z,40.17
2022-07-28T00:03:39.271Z,40.15
2022-07-28T00:06:07.434Z,39.96
2022-07-28T00:08:35.229Z,40.63
2022-07-28T00:11:04.466Z,40.16
2022-07-28T00:13:32.255Z,40.09
2022-07-28T00:16:00.117Z,39.98
2022-07-28T00:18:27.964Z,40.08
2022-07-28T00:20:56.623Z,40.27
2022-07-28T00:23:24.436Z,39.94
2022-07-28T00:26:08.401Z,40.50
2022-07-28T00:28:36.350Z,40.53
2022-07-28T00:31:05.515Z,40.63
2022-07-28T00:33:36.589Z,39.98
2022-07-28T00:36:04.913Z,40.42
2022-07-28T00:38:34.252Z,39.96
2022-07-28T00:41:12.010Z,40.03
2022-07-28T00:43:41.498Z,40.44
2022-07-28T00:46:09.875Z,40.03
2022-07-28T00:48:38.564Z,40.13
2022-07-28T00:51:06.362Z,39.99
2022-07-28T00:53:34.110Z,39.92
2022-07-28T00:56:03.443Z,40.40
2022-07-28T00:58:34.357Z,40.66
2022-07-28T01:01:03.633Z,40.58
2022-07-28T01:03:31.420Z,39.92
2022-07-28T01:06:05.175Z,40.49
2022-07-28T01:08:38.844Z,40.01
2022-07-28T01:11:09.980Z,40.37
2022-07-28T01:13:40.876Z,40.40
2022-07-28T01:16:10.134Z,40.55
2022-07-28T01:18:42.961Z,40.01
2022-07-28T01:21:13.281Z,40.41
2022-07-28T01:23:57.310Z,40.01
2022-07-28T01:26:36.569Z,39.92
2022-07-28T01:29:06.649Z,39.93
2022-07-28T01:31:39.045Z,40.38
2022-07-28T01:34:08.089Z,39.83
2022-07-28T01:36:39.782Z,39.93
2022-07-28T01:39:07.604Z,39.97
2022-07-28T01:41:35.712Z,39.90
2022-07-28T01:44:06.049Z,40.18
2022-07-28T01:46:35.822Z,40.17
2022-07-28T01:49:03.914Z,39.95
2022-07-28T01:51:32.245Z,39.97
2022-07-28T01:54:00.685Z,39.81
2022-07-28T01:56:28.741Z,40.40
2022-07-28T01:58:56.894Z,39.76
2022-07-28T02:01:24.906Z,39.78
2022-07-28T02:03:54.096Z,40.28
2022-07-28T02:06:21.929Z,39.81
2022-07-28T02:08:50.086Z,39.89
2022-07-28T02:11:35.302Z,40.39
2022-07-28T02:14:03.070Z,39.86
2022-07-28T02:16:30.868Z,39.81
2022-07-28T02:19:00.011Z,40.05
2022-07-28T02:21:27.895Z,39.96
2022-07-28T02:23:55.720Z,39.94
2022-07-28T02:26:27.727Z,40.12
2022-07-28T02:28:56.353Z,39.98
2022-07-28T02:31:26.248Z,39.65
2022-07-28T02:33:59.024Z,40.33
2022-07-28T02:36:30.743Z,40.18
2022-07-28T02:39:02.957Z,40.15
2022-07-28T02:41:31.081Z,40.25
2022-07-28T02:44:00.741Z,40.26
2022-07-28T02:46:30.665Z,39.68
2022-07-28T02:49:06.328Z,40.27
2022-07-28T02:51:35.710Z,39.82
2022-07-28T02:54:03.536Z,39.70
2022-07-28T02:56:31.394Z,40.19
2022-07-28T02:58:59.206Z,39.66
2022-07-28T03:01:27.085Z,40.22
2022-07-28T03:03:56.954Z,40.27
2022-07-28T03:06:28.689Z,39.78
2022-07-28T03:08:58.583Z,39.75
2022-07-28T03:11:27.627Z,39.76
2022-07-28T03:13:55.499Z,40.01
2022-07-28T03:16:23.380Z,40.23
2022-07-28T03:18:51.343Z,39.94
2022-07-28T03:21:19.101Z,39.71
2022-07-28T03:23:48.096Z,40.11
2022-07-28T03:26:20.684Z,39.86
2022-07-28T03:28:51.645Z,39.72
2022-07-28T03:31:19.436Z,40.22
2022-07-28T03:33:47.304Z,39.83
2022-07-28T03:36:16.743Z,39.77
2022-07-28T03:38:46.793Z,40.29
2022-07-28T03:41:14.606Z,39.54
2022-07-28T03:43:43.822Z,39.70
2022-07-28T03:46:13.456Z,39.54
2022-07-28T03:48:41.782Z,40.13
2022-07-28T03:51:09.678Z,39.91
2022-07-28T03:53:37.519Z,40.22
2022-07-28T03:56:06.379Z,40.04
2022-07-28T03:58:34.397Z,39.93
2022-07-28T04:01:03.566Z,39.67
2022-07-28T04:03:42.566Z,39.65
2022-07-28T04:06:11.978Z,40.01
2022-07-28T04:08:40.052Z,40.10
2022-07-28T04:11:07.810Z,39.90
2022-07-28T04:13:37.090Z,39.69
2022-07-28T04:16:06.990Z,39.88
2022-07-28T04:18:35.488Z,39.48
2022-07-28T04:21:03.389Z,39.40
2022-07-28T04:23:31.821Z,39.77
2022-07-28T04:25:59.700Z,39.76
2022-07-28T04:28:27.712Z,39.47
2022-07-28T04:30:55.623Z,39.57
2022-07-28T04:33:24.910Z,39.45
2022-07-28T04:35:52.832Z,39.45
2022-07-28T04:38:21.236Z,39.39
2022-07-28T04:40:49.075Z,39.85
2022-07-28T04:43:16.838Z,39.87
2022-07-28T04:45:53.193Z,39.67
2022-07-28T04:48:24.057Z,39.45
2022-07-28T04:50:53.009Z,39.39
2022-07-28T04:53:21.366Z,39.45
2022-07-28T04:55:49.469Z,39.91
2022-07-28T04:58:19.310Z,39.49
2022-07-28T05:00:50.047Z,39.94
2022-07-28T05:03:18.548Z,39.44
2022-07-28T05:05:54.592Z,39.66
2022-07-28T05:08:26.259Z,39.44
2022-07-28T05:10:56.414Z,39.78
2022-07-28T05:13:25.350Z,39.44
2022-07-28T05:15:55.721Z,39.54
2022-07-28T05:18:23.816Z,39.76
2022-07-28T05:20:52.978Z,39.85
2022-07-28T05:23:20.770Z,39.55
2022-07-28T05:25:48.725Z,39.53
2022-07-28T05:28:17.138Z,39.32
2022-07-28T05:30:45.295Z,39.40
2022-07-28T05:33:13.207Z,39.26
2022-07-28T05:35:41.094Z,39.88
2022-07-28T05:38:11.223Z,39.76
2022-07-28T05:40:39.137Z,39.33
2022-07-28T05:43:07.004Z,39.78
2022-07-28T05:45:35.039Z,39.32
2022-07-28T05:48:03.225Z,39.39
2022-07-28T05:50:31.095Z,39.78
2022-07-28T05:52:58.864Z,39.15
2022-07-28T05:55:28.166Z,39.12
2022-07-28T05:57:56.398Z,39.78
2022-07-28T06:00:24.225Z,39.78
2022-07-28T06:02:52.223Z,39.56
2022-07-28T06:05:21.261Z,39.23
2022-07-28T06:07:50.441Z,39.68
2022-07-28T06:10:19.451Z,39.16
2022-07-28T06:12:49.478Z,39.65
2022-07-28T06:15:18.627Z,39.23
2022-07-28T06:17:46.932Z,39.68
2022-07-28T06:20:14.726Z,39.22
2022-07-28T06:22:44.008Z,39.11
2022-07-28T06:25:16.153Z,39.05
2022-07-28T06:27:44.368Z,39.34
2022-07-28T06:30:13.998Z,39.04
2022-07-28T06:32:41.792Z,39.27
2022-07-28T06:35:10.062Z,39.32
2022-07-28T06:37:38.194Z,39.19
2022-07-28T06:40:07.359Z,39.55
2022-07-28T06:42:35.154Z,39.23
2022-07-28T06:45:02.987Z,39.73
2022-07-28T06:47:32.562Z,39.15
2022-07-28T06:50:00.417Z,39.46
2022-07-28T06:52:28.265Z,39.21
2022-07-28T06:54:58.266Z,39.77
2022-07-28T06:57:33.224Z,39.11
2022-07-28T07:00:02.858Z,39.04
2022-07-28T07:02:32.059Z,39.13
2022-07-28T07:04:59.928Z,39.66
2022-07-28T07:07:28.178Z,39.49
2022-07-28T07:09:55.989Z,39.32
2022-07-28T07:12:23.779Z,39.72
2022-07-28T07:14:51.605Z,39.77
2022-07-28T07:17:19.405Z,39.68
2022-07-28T07:19:49.010Z,39.68
2022-07-28T07:22:17.169Z,39.71
2022-07-28T07:24:44.945Z,39.13
2022-07-28T07:27:13.653Z,39.59
2022-07-28T07:29:41.461Z,39.35
2022-07-28T07:32:10.912Z,39.73
2022-07-28T07:34:39.789Z,39.09
2022-07-28T07:37:14.015Z,39.29
2022-07-28T07:39:42.303Z,39.33
2022-07-28T07:42:10.075Z,39.57
2022-07-28T07:44:37.934Z,39.07
2022-07-28T07:47:06.032Z,39.60
2022-07-28T07:49:45.497Z,39.26
2022-07-28T07:52:15.567Z,39.24
2022-07-28T07:54:43.380Z,39.16
2022-07-28T07:57:11.200Z,39.82
2022-07-28T07:59:39.002Z,39.22
2022-07-28T08:02:07.464Z,39.76
2022-07-28T08:04:37.319Z,39.04
2022-07-28T08:07:06.308Z,39.05
2022-07-28T08:09:35.778Z,39.34
2022-07-28T08:12:03.576Z,39.28
2022-07-28T08:14:31.357Z,39.26
2022-07-28T08:16:59.621Z,39.13
2022-07-28T08:19:27.469Z,39.66
2022-07-28T08:21:55.488Z,39.13
2022-07-28T08:24:32.573Z,39.66
2022-07-28T08:27:03.444Z,39.06
2022-07-28T08:29:31.944Z,39.71
2022-07-28T08:32:01.402Z,39.16
2022-07-28T08:34:33.369Z,39.15
2022-07-28T08:37:02.108Z,39.19
2022-07-28T08:39:30.205Z,39.06
2022-07-28T08:42:00.905Z,39.25
2022-07-28T08:44:34.000Z,39.19
2022-07-28T08:47:01.964Z,39.23
2022-07-28T08:49:30.753Z,39.19
2022-07-28T08:51:58.558Z,39.44
2022-07-28T08:54:28.160Z,39.28
2022-07-28T08:56:56.001Z,39.73
2022-07-28T08:59:23.790Z,39.05
2022-07-28T09:01:57.410Z,39.45
2022-07-28T09:04:26.019Z,39.56
2022-07-28T09:06:53.848Z,39.70
2022-07-28T09:09:22.528Z,39.34
2022-07-28T09:11:50.347Z,39.79
2022-07-28T09:14:18.099Z,39.63
2022-07-28T09:16:45.887Z,39.29
2022-07-28T09:19:15.424Z,39.16
2022-07-28T09:21:43.248Z,39.74
2022-07-28T09:24:11.242Z,39.56
2022-07-28T09:26:39.228Z,39.23
2022-07-28T09:29:08.512Z,39.27
2022-07-28T09:31:36.402Z,39.45
2022-07-28T09:34:05.185Z,39.68
2022-07-28T09:36:39.129Z,39.69
2022-07-28T09:39:06.998Z,39.89
2022-07-28T09:41:47.377Z,39.25
2022-07-28T09:44:19.141Z,39.78
2022-07-28T09:46:47.201Z,39.21
2022-07-28T09:49:15.672Z,39.30
2022-07-28T09:51:45.437Z,39.44
2022-07-28T09:54:14.398Z,39.37
2022-07-28T09:56:43.672Z,39.21
2022-07-28T09:59:13.944Z,39.72
2022-07-28T10:01:52.681Z,39.33
2022-07-28T10:04:30.646Z,39.47
2022-07-28T10:07:05.943Z,39.86
2022-07-28T10:09:34.052Z,39.92
2022-07-28T10:12:17.783Z,39.86
2022-07-28T10:14:47.236Z,39.58
2022-07-28T10:17:25.451Z,39.85
2022-07-28T10:19:55.218Z,39.98
2022-07-28T10:22:24.744Z,39.78
2022-07-28T10:24:53.936Z,39.63
2022-07-28T10:27:22.811Z,39.51
2022-07-28T10:29:51.869Z,39.86
2022-07-28T10:32:19.674Z,39.35
2022-07-28T10:34:52.308Z,39.85
2022-07-28T10:37:24.765Z,39.91
2022-07-28T10:39:59.007Z,39.81
2022-07-28T10:42:26.760Z,39.96
2022-07-28T10:44:54.847Z,39.45
2022-07-28T10:47:23.482Z,39.54
2022-07-28T10:49:52.191Z,39.94
2022-07-28T10:52:46.350Z,39.87
2022-07-28T10:55:14.163Z,39.96
2022-07-28T10:57:44.455Z,39.71
2022-07-28T11:00:20.849Z,39.91
2022-07-28T11:02:56.821Z,40.12
2022-07-28T11:05:35.543Z,40.08
2022-07-28T11:08:06.289Z,40.13
2022-07-28T11:10:46.417Z,40.11
2022-07-28T11:13:28.886Z,40.03
2022-07-28T11:15:58.311Z,40.00
2022-07-28T11:18:28.465Z,40.13
2022-07-28T11:21:07.972Z,39.51
2022-07-28T11:23:57.035Z,39.53
2022-07-28T11:26:37.333Z,40.07
2022-07-28T11:29:21.618Z,40.14
2022-07-28T11:32:05.415Z,39.56
2022-07-28T11:35:08.681Z,40.19
2022-07-28T11:38:11.024Z,40.01
2022-07-28T11:40:40.479Z,39.87
2022-07-28T11:43:35.615Z,39.89
2022-07-28T11:46:32.193Z,40.14
2022-07-28T11:49:28.763Z,39.69
2022-07-28T11:52:24.324Z,40.14
2022-07-28T11:54:54.110Z,39.66
2022-07-28T11:57:24.386Z,39.66
2022-07-28T12:00:01.931Z,39.62
2022-07-28T12:02:31.511Z,39.98
2022-07-28T12:05:02.442Z,39.72
2022-07-28T12:07:36.651Z,39.68
2022-07-28T12:10:44.225Z,39.81
2022-07-28T12:13:08.531Z,39.85
2022-07-28T12:15:37.693Z,39.56
2022-07-28T12:18:06.044Z,40.09
2022-07-28T12:20:34.407Z,39.53
2022-07-28T12:23:04.569Z,40.00
2022-07-28T12:25:40.577Z,40.21
2022-07-28T12:28:18.514Z,39.75
2022-07-28T12:30:49.328Z,40.26
2022-07-28T12:33:19.317Z,40.29
2022-07-28T12:35:47.458Z,40.28
2022-07-28T12:38:15.263Z,40.25
2022-07-28T12:40:43.077Z,40.29
2022-07-28T12:43:10.873Z,40.13
2022-07-28T12:45:45.787Z,40.17
2022-07-28T12:48:15.162Z,39.86
2022-07-28T12:50:42.974Z,40.33
2022-07-28T12:53:12.127Z,40.29
2022-07-28T12:55:40.375Z,39.84
2022-07-28T12:58:08.208Z,39.78
2022-07-28T13:00:36.984Z,39.92
2022-07-28T13:03:25.240Z,40.35
2022-07-28T13:06:05.944Z,39.81
2022-07-28T13:08:44.582Z,40.24
2022-07-28T13:11:34.877Z,39.68
2022-07-28T13:14:01.957Z,39.81
2022-07-28T13:16:29.911Z,39.85
2022-07-28T13:19:02.667Z,40.52
2022-07-28T13:21:58.315Z,40.29
2022-07-28T13:24:28.565Z,39.86
2022-07-28T13:26:56.432Z,39.90
2022-07-28T13:29:24.477Z,39.84
2022-07-28T13:31:54.473Z,39.87
2022-07-28T13:34:24.074Z,40.40
2022-07-28T13:36:52.492Z,39.86
2022-07-28T13:39:20.437Z,40.13
2022-07-28T13:41:56.755Z,40.43
2022-07-28T13:44:25.925Z,40.25
2022-07-28T13:46:55.246Z,40.02
2022-07-28T13:49:25.035Z,39.77
2022-07-28T13:51:53.345Z,40.26
2022-07-28T13:54:21.151Z,39.97
2022-07-28T13:57:07.290Z,39.94
2022-07-28T13:59:40.481Z,39.93
2022-07-28T14:02:15.494Z,40.13
2022-07-28T14:04:45.910Z,40.14
2022-07-28T14:07:20.669Z,39.78
2022-07-28T14:09:50.148Z,39.89
2022-07-28T14:12:17.988Z,40.36
2022-07-28T14:14:48.684Z,40.31
2022-07-28T14:17:42.535Z,40.01
2022-07-28T14:20:07.282Z,40.48
2022-07-28T14:22:35.127Z,39.92
2022-07-28T14:25:02.991Z,39.86
2022-07-28T14:27:31.132Z,39.91
2022-07-28T14:29:58.985Z,40.46
2022-07-28T14:32:26.755Z,40.00
2022-07-28T14:34:54.735Z,40.23
2022-07-28T14:37:23.917Z,40.48
2022-07-28T14:39:51.978Z,40.15
2022-07-28T14:42:19.789Z,40.42
2022-07-28T14:44:48.084Z,39.91
2022-07-28T14:47:17.665Z,40.23
2022-07-28T14:49:58.086Z,39.92
2022-07-28T14:52:27.837Z,40.54
2022-07-28T14:54:55.644Z,40.42
2022-07-28T14:57:48.251Z,40.65
2022-07-28T15:00:12.442Z,40.47
2022-07-28T15:02:40.357Z,40.07
2022-07-28T15:05:09.316Z,40.48
2022-07-28T15:07:39.013Z,40.04
2022-07-28T15:10:07.339Z,40.37
2022-07-28T15:12:35.125Z,40.08
2022-07-28T15:15:03.024Z,40.18
2022-07-28T15:17:30.795Z,40.63
2022-07-28T15:19:59.052Z,40.46
2022-07-28T15:22:26.831Z,40.63
2022-07-28T15:24:56.020Z,40.64
2022-07-28T15:27:25.059Z,40.47
2022-07-28T15:29:52.897Z,40.48
2022-07-28T15:32:27.243Z,40.54
2022-07-28T15:34:56.354Z,40.47
2022-07-28T15:37:24.398Z,40.19
2022-07-28T15:39:52.154Z,40.07
2022-07-28T15:42:21.325Z,40.17
2022-07-28T15:44:49.256Z,40.55
2022-07-28T15:47:17.163Z,40.63
2022-07-28T15:49:45.008Z,40.56
2022-07-28T15:52:14.050Z,40.72
2022-07-28T15:54:42.216Z,39.96
2022-07-28T15:57:10.102Z,40.27
2022-07-28T15:59:48.607Z,40.19
2022-07-28T16:02:18.226Z,40.10
2022-07-28T16:04:48.494Z,40.06
2022-07-28T16:07:23.285Z,40.62
2022-07-28T16:09:51.655Z,40.10
2022-07-28T16:12:19.589Z,40.21
2022-07-28T16:14:48.883Z,40.50
2022-07-28T16:17:16.738Z,40.18
2022-07-28T16:19:49.890Z,39.96
2022-07-28T16:22:17.982Z,40.62
2022-07-28T16:24:45.809Z,40.13
2022-07-28T16:27:13.947Z,40.09
2022-07-28T16:29:42.101Z,40.47
2022-07-28T16:32:11.432Z,40.63
2022-07-28T16:34:39.470Z,40.01
2022-07-28T16:37:07.377Z,40.05
2022-07-28T16:39:35.300Z,40.17
2022-07-28T16:42:03.221Z,40.70
2022-07-28T16:44:31.169Z,40.70
2022-07-28T16:46:59.556Z,40.53
2022-07-28T16:49:28.898Z,40.03
2022-07-28T16:51:57.560Z,40.37
2022-07-28T16:54:25.468Z,40.13
2022-07-28T16:56:55.357Z,40.62
2022-07-28T16:59:23.691Z,40.07
2022-07-28T17:02:04.878Z,40.54
2022-07-28T17:04:34.083Z,40.53
2022-07-28T17:07:02.599Z,40.68
2022-07-28T17:09:30.814Z,40.21
2022-07-28T17:11:58.641Z,40.44
2022-07-28T17:14:26.405Z,40.10
2022-07-28T17:16:54.247Z,40.23
2022-07-28T17:19:22.360Z,40.23
2022-07-28T17:21:51.490Z,40.68
2022-07-28T17:24:20.837Z,40.21
2022-07-28T17:29:36.876Z,40.18
2022-07-28T17:32:04.897Z,40.59
2022-07-28T17:34:34.223Z,40.70
2022-07-28T17:37:03.885Z,40.67
2022-07-28T17:39:31.787Z,40.35
2022-07-28T17:41:59.604Z,40.54
2022-07-28T17:44:27.504Z,40.79
2022-07-28T17:46:55.350Z,40.21
2022-07-28T17:49:23.821Z,40.16
2022-07-28T17:51:51.692Z,40.24
2022-07-28T17:54:24.976Z,40.75
2022-07-28T17:56:53.062Z,40.82
2022-07-28T17:59:21.701Z,40.17
2022-07-28T18:01:49.605Z,40.31
2022-07-28T18:04:17.864Z,40.29
2022-07-28T18:06:45.925Z,40.51
2022-07-28T18:09:14.344Z,40.22
2022-07-28T18:11:57.245Z,40.11
2022-07-28T18:14:26.035Z,40.35
2022-07-28T18:16:53.873Z,40.87
2022-07-28T18:19:21.751Z,40.46
2022-07-28T18:21:49.672Z,40.59
2022-07-28T18:24:18.085Z,40.25
2022-07-28T18:26:47.707Z,40.78
2022-07-28T18:29:16.001Z,40.36
2022-07-28T18:31:46.653Z,40.08
2022-07-28T18:34:15.362Z,40.82
2022-07-28T18:36:43.547Z,40.34
2022-07-28T18:39:12.354Z,40.90
2022-07-28T18:41:46.494Z,40.30
2022-07-28T18:44:17.824Z,40.23
2022-07-28T18:46:46.360Z,40.16
2022-07-28T18:49:14.629Z,40.86
2022-07-28T18:51:44.975Z,40.42
2022-07-28T18:54:14.387Z,40.18
2022-07-28T18:56:43.486Z,40.57
2022-07-28T18:59:11.664Z,40.74
2022-07-28T19:01:40.926Z,40.67
2022-07-28T19:04:08.846Z,40.85
2022-07-28T19:06:36.787Z,40.86
2022-07-28T19:09:05.321Z,40.91
2022-07-28T19:11:33.561Z,40.63
2022-07-28T19:14:01.685Z,40.34
2022-07-28T19:16:29.565Z,40.35
2022-07-28T19:18:59.309Z,40.73
2022-07-28T19:21:27.140Z,40.38
2022-07-28T19:23:54.962Z,40.60
2022-07-28T19:26:23.850Z,40.40
2022-07-28T19:28:52.202Z,40.24
2022-07-28T19:31:20.025Z,40.27
2022-07-28T19:33:47.836Z,40.19
2022-07-28T19:36:17.041Z,40.54
2022-07-28T19:38:45.171Z,41.03
2022-07-28T19:41:13.073Z,40.23
2022-07-28T19:43:40.916Z,40.96
2022-07-28T19:46:08.829Z,40.79
2022-07-28T19:48:37.301Z,40.28
2022-07-28T19:51:05.316Z,40.73
2022-07-28T19:53:36.989Z,40.85
2022-07-28T19:56:08.921Z,40.35
2022-07-28T19:58:37.606Z,40.43
2022-07-28T20:01:05.644Z,40.35
2022-07-28T20:04:01.334Z,40.29
2022-07-28T20:06:25.093Z,40.28
2022-07-28T20:08:54.811Z,40.26
2022-07-28T20:11:22.649Z,40.22
2022-07-28T20:13:50.751Z,40.28
2022-07-28T20:16:18.706Z,40.40
2022-07-28T20:18:47.115Z,40.34
2022-07-28T20:21:14.911Z,40.22
2022-07-28T20:23:42.805Z,40.56
2022-07-28T20:26:12.087Z,40.22
2022-07-28T20:28:40.399Z,40.80
2022-07-28T20:31:09.651Z,40.42
2022-07-28T20:33:40.186Z,40.12
2022-07-28T20:36:08.638Z,40.76
2022-07-28T20:38:36.868Z,40.25
2022-07-28T20:41:06.572Z,40.24
2022-07-28T20:43:37.085Z,40.74
2022-07-28T20:46:05.325Z,40.33
2022-07-28T20:48:33.811Z,40.23
2022-07-28T20:51:01.693Z,40.77
2022-07-28T20:53:29.580Z,40.77
2022-07-28T20:55:57.414Z,40.26
2022-07-28T20:58:25.581Z,40.67
2022-07-28T21:00:55.155Z,40.69
2022-07-28T21:03:23.244Z,40.81
2022-07-28T21:05:51.012Z,40.85
2022-07-28T21:08:19.333Z,40.77
2022-07-28T21:10:47.093Z,40.89
2022-07-28T21:13:15.004Z,40.66
2022-07-28T21:15:42.837Z,40.99
2022-07-28T21:18:12.411Z,40.63
2022-07-28T21:20:40.198Z,40.48
2022-07-28T21:23:08.048Z,40.35
2022-07-28T21:25:35.897Z,40.75
2022-07-28T21:28:21.749Z,40.74
2022-07-28T21:30:49.510Z,40.85
2022-07-28T21:33:23.065Z,40.20
2022-07-28T21:35:51.155Z,40.69
2022-07-28T21:38:19.459Z,40.19
2022-07-28T21:40:47.291Z,40.43
2022-07-28T21:43:15.119Z,40.11
2022-07-28T21:45:42.926Z,40.74
2022-07-28T21:48:11.256Z,40.58
2022-07-28T21:50:40.399Z,40.70
2022-07-28T21:53:10.837Z,40.14
2022-07-28T21:55:40.925Z,40.31
2022-07-28T21:58:08.996Z,40.45
2022-07-28T22:00:36.795Z,40.02
2022-07-28T22:03:04.726Z,40.12
2022-07-28T22:05:32.766Z,40.30
2022-07-28T22:08:02.286Z,40.59
2022-07-28T22:10:30.331Z,40.27
2022-07-28T22:12:59.563Z,40.04
2022-07-28T22:15:27.358Z,40.63
2022-07-28T22:17:55.426Z,40.49
2022-07-28T22:20:23.335Z,40.59
2022-07-28T22:22:51.135Z,40.34
2022-07-28T22:25:20.357Z,40.14
2022-07-28T22:27:48.575Z,40.63
2022-07-28T22:30:16.376Z,40.14
2022-07-28T22:32:44.282Z,40.41
2022-07-28T22:35:12.115Z,40.75
2022-07-28T22:37:40.318Z,40.69
2022-07-28T22:40:09.065Z,40.19
2022-07-28T22:42:38.298Z,40.59
2022-07-28T22:45:08.474Z,40.69
2022-07-28T22:47:36.701Z,40.07
2022-07-28T22:50:05.210Z,40.32
2022-07-28T22:52:33.176Z,40.21
2022-07-28T22:55:00.964Z,40.14
2022-07-28T22:57:29.209Z,40.23
2022-07-28T22:59:58.420Z,40.38
2022-07-28T23:02:26.897Z,40.59
2022-07-28T23:04:54.743Z,40.62
2022-07-28T23:07:50.618Z,40.13
2022-07-28T23:10:11.061Z,40.23
2022-07-28T23:12:38.852Z,40.29
2022-07-28T23:15:09.878Z,40.72
2022-07-28T23:17:38.089Z,40.38
2022-07-28T23:20:07.062Z,40.59
2022-07-28T23:22:34.891Z,40.61
2022-07-28T23:25:03.806Z,40.30
2022-07-28T23:27:31.961Z,40.54
2022-07-28T23:29:59.783Z,40.13
2022-07-28T23:32:28.955Z,40.66
2022-07-28T23:34:56.752Z,40.45
2022-07-28T23:37:24.604Z,40.36
2022-07-28T23:39:52.434Z,40.52
2022-07-28T23:42:20.244Z,40.05
2022-07-28T23:44:48.106Z,40.44
2022-07-28T23:47:16.066Z,40.09
2022-07-28T23:49:45.843Z,40.08
2022-07-28T23:52:13.699Z,40.19
2022-07-28T23:54:41.881Z,40.42
2022-07-28T23:57:09.782Z,40.01
2022-07-28T23:59:37.931Z,40.60
